sensor_id;sensor_type;location;lat;lon;timestamp;P1;durP1;ratioP1;P2;durP2;ratioP2
8837;SDS011;4455;50.880;4.698;2022-08-19T00:01:26;12.23;;;11.13;;
8837;SDS011;4455;50.880;4.698;2022-08-19T00:03:54;11.57;;;10.50;;
8837;SDS011;4455;50.880;4.698;2022-08-19T00:06:21;12.87;;;11.67;;
8837;SDS011;4455;50.880;4.698;2022-08-19T00:08:46;13.07;;;11.80;;
8837;SDS011;4455;50.880;4.698;2022-08-19T00:11:12;12.70;;;11.17;;
8837;SDS011;4455;50.880;4.698;2022-08-19T00:13:38;11.87;;;10.73;;
8837;SDS011;4455;50.880;4.698;2022-08-19T00:16:05;13.70;;;12.30;;
8837;SDS011;4455;50.880;4.698;2022-08-19T00:18:32;14.17;;;12.77;;
8837;SDS011;4455;50.880;4.698;2022-08-19T00:20:58;14.07;;;12.67;;
8837;SDS011;4455;50.880;4.698;2022-08-19T00:23:24;13.23;;;12.00;;
8837;SDS011;4455;50.880;4.698;2022-08-19T00:25:51;13.73;;;12.33;;
8837;SDS011;4455;50.880;4.698;2022-08-19T00:28:17;13.40;;;12.10;;
8837;SDS011;4455;50.880;4.698;2022-08-19T00:30:43;13.63;;;12.30;;
8837;SDS011;4455;50.880;4.698;2022-08-19T00:33:09;14.53;;;13.13;;
8837;SDS011;4455;50.880;4.698;2022-08-19T00:35:35;14.23;;;12.83;;
8837;SDS011;4455;50.880;4.698;2022-08-19T00:38:03;14.17;;;12.67;;
8837;SDS011;4455;50.880;4.698;2022-08-19T00:40:31;14.10;;;12.70;;
8837;SDS011;4455;50.880;4.698;2022-08-19T00:42:57;13.77;;;12.37;;
8837;SDS011;4455;50.880;4.698;2022-08-19T00:45:24;15.70;;;13.23;;
8837;SDS011;4455;50.880;4.698;2022-08-19T00:47:53;16.83;;;14.03;;
8837;SDS011;4455;50.880;4.698;2022-08-19T00:50:19;15.43;;;13.23;;
8837;SDS011;4455;50.880;4.698;2022-08-19T00:52:47;15.50;;;13.90;;
8837;SDS011;4455;50.880;4.698;2022-08-19T00:55:20;17.13;;;14.37;;
8837;SDS011;4455;50.880;4.698;2022-08-19T00:57:53;17.63;;;14.00;;
8837;SDS011;4455;50.880;4.698;2022-08-19T01:00:23;18.53;;;16.23;;
8837;SDS011;4455;50.880;4.698;2022-08-19T01:02:50;21.83;;;18.23;;
8837;SDS011;4455;50.880;4.698;2022-08-19T01:05:18;22.20;;;19.10;;
8837;SDS011;4455;50.880;4.698;2022-08-19T01:07:49;22.87;;;18.73;;
8837;SDS011;4455;50.880;4.698;2022-08-19T01:10:18;27.60;;;21.33;;
8837;SDS011;4455;50.880;4.698;2022-08-19T01:12:46;26.37;;;21.07;;
8837;SDS011;4455;50.880;4.698;2022-08-19T01:15:14;32.30;;;25.47;;
8837;SDS011;4455;50.880;4.698;2022-08-19T01:17:43;33.13;;;25.87;;
8837;SDS011;4455;50.880;4.698;2022-08-19T01:20:16;32.20;;;24.23;;
8837;SDS011;4455;50.880;4.698;2022-08-19T01:22:52;32.27;;;27.37;;
8837;SDS011;4455;50.880;4.698;2022-08-19T01:25:22;35.27;;;28.03;;
8837;SDS011;4455;50.880;4.698;2022-08-19T01:28:00;36.67;;;28.23;;
8837;SDS011;4455;50.880;4.698;2022-08-19T01:30:31;39.77;;;29.53;;
8837;SDS011;4455;50.880;4.698;2022-08-19T01:32:59;40.63;;;30.00;;
8837;SDS011;4455;50.880;4.698;2022-08-19T01:35:32;38.63;;;29.93;;
8837;SDS011;4455;50.880;4.698;2022-08-19T01:38:02;40.17;;;31.30;;
8837;SDS011;4455;50.880;4.698;2022-08-19T01:40:33;41.30;;;31.20;;
8837;SDS011;4455;50.880;4.698;2022-08-19T01:43:03;38.50;;;29.70;;
8837;SDS011;4455;50.880;4.698;2022-08-19T01:45:32;42.90;;;31.63;;
8837;SDS011;4455;50.880;4.698;2022-08-19T01:47:59;41.87;;;31.33;;
8837;SDS011;4455;50.880;4.698;2022-08-19T01:50:26;41.83;;;31.67;;
8837;SDS011;4455;50.880;4.698;2022-08-19T01:52:52;42.63;;;33.13;;
8837;SDS011;4455;50.880;4.698;2022-08-19T01:55:19;47.63;;;33.43;;
8837;SDS011;4455;50.880;4.698;2022-08-19T01:57:50;43.70;;;32.77;;
8837;SDS011;4455;50.880;4.698;2022-08-19T02:00:19;42.47;;;31.27;;
8837;SDS011;4455;50.880;4.698;2022-08-19T02:02:47;42.70;;;31.30;;
8837;SDS011;4455;50.880;4.698;2022-08-19T02:05:13;41.63;;;32.30;;
8837;SDS011;4455;50.880;4.698;2022-08-19T02:07:40;44.77;;;34.00;;
8837;SDS011;4455;50.880;4.698;2022-08-19T02:10:07;39.20;;;30.07;;
8837;SDS011;4455;50.880;4.698;2022-08-19T02:12:35;36.70;;;28.73;;
8837;SDS011;4455;50.880;4.698;2022-08-19T02:15:01;39.20;;;29.63;;
8837;SDS011;4455;50.880;4.698;2022-08-19T02:17:28;39.60;;;30.13;;
8837;SDS011;4455;50.880;4.698;2022-08-19T02:19:55;37.67;;;29.63;;
8837;SDS011;4455;50.880;4.698;2022-08-19T02:22:21;34.67;;;28.40;;
8837;SDS011;4455;50.880;4.698;2022-08-19T02:24:48;35.70;;;26.93;;
8837;SDS011;4455;50.880;4.698;2022-08-19T02:27:14;38.43;;;28.40;;
8837;SDS011;4455;50.880;4.698;2022-08-19T02:29:40;38.03;;;28.80;;
8837;SDS011;4455;50.880;4.698;2022-08-19T02:32:06;34.43;;;26.40;;
8837;SDS011;4455;50.880;4.698;2022-08-19T02:34:34;34.63;;;26.10;;
8837;SDS011;4455;50.880;4.698;2022-08-19T02:37:00;34.13;;;27.17;;
8837;SDS011;4455;50.880;4.698;2022-08-19T02:39:25;31.13;;;25.23;;
8837;SDS011;4455;50.880;4.698;2022-08-19T02:41:51;33.80;;;26.03;;
8837;SDS011;4455;50.880;4.698;2022-08-19T02:44:17;32.10;;;24.50;;
8837;SDS011;4455;50.880;4.698;2022-08-19T02:46:44;34.00;;;25.50;;
8837;SDS011;4455;50.880;4.698;2022-08-19T02:49:11;33.50;;;26.70;;
8837;SDS011;4455;50.880;4.698;2022-08-19T02:51:40;33.50;;;26.50;;
8837;SDS011;4455;50.880;4.698;2022-08-19T02:54:07;31.87;;;25.40;;
8837;SDS011;4455;50.880;4.698;2022-08-19T02:56:36;31.47;;;25.03;;
8837;SDS011;4455;50.880;4.698;2022-08-19T02:59:03;30.67;;;24.33;;
8837;SDS011;4455;50.880;4.698;2022-08-19T03:01:36;31.33;;;23.97;;
8837;SDS011;4455;50.880;4.698;2022-08-19T03:04:05;29.30;;;22.83;;
8837;SDS011;4455;50.880;4.698;2022-08-19T03:06:31;28.37;;;23.73;;
8837;SDS011;4455;50.880;4.698;2022-08-19T03:09:01;26.27;;;22.43;;
8837;SDS011;4455;50.880;4.698;2022-08-19T03:11:28;29.50;;;24.20;;
8837;SDS011;4455;50.880;4.698;2022-08-19T03:13:56;25.10;;;20.90;;
8837;SDS011;4455;50.880;4.698;2022-08-19T03:16:24;22.87;;;20.37;;
8837;SDS011;4455;50.880;4.698;2022-08-19T03:18:52;23.23;;;20.73;;
8837;SDS011;4455;50.880;4.698;2022-08-19T03:21:22;25.20;;;21.43;;
8837;SDS011;4455;50.880;4.698;2022-08-19T03:23:50;25.33;;;19.80;;
8837;SDS011;4455;50.880;4.698;2022-08-19T03:26:18;27.47;;;20.63;;
8837;SDS011;4455;50.880;4.698;2022-08-19T03:28:44;25.13;;;21.43;;
8837;SDS011;4455;50.880;4.698;2022-08-19T03:31:15;27.77;;;20.73;;
8837;SDS011;4455;50.880;4.698;2022-08-19T03:33:43;27.50;;;22.13;;
8837;SDS011;4455;50.880;4.698;2022-08-19T03:36:11;29.17;;;22.80;;
8837;SDS011;4455;50.880;4.698;2022-08-19T03:38:46;26.43;;;22.40;;
8837;SDS011;4455;50.880;4.698;2022-08-19T03:41:17;26.40;;;22.43;;
8837;SDS011;4455;50.880;4.698;2022-08-19T03:43:45;30.80;;;24.23;;
8837;SDS011;4455;50.880;4.698;2022-08-19T03:46:16;29.40;;;22.67;;
8837;SDS011;4455;50.880;4.698;2022-08-19T03:48:48;28.33;;;23.87;;
8837;SDS011;4455;50.880;4.698;2022-08-19T03:51:27;27.73;;;23.13;;
8837;SDS011;4455;50.880;4.698;2022-08-19T03:53:58;30.67;;;23.07;;
8837;SDS011;4455;50.880;4.698;2022-08-19T03:56:26;27.00;;;22.70;;
8837;SDS011;4455;50.880;4.698;2022-08-19T03:58:53;28.83;;;24.77;;
8837;SDS011;4455;50.880;4.698;2022-08-19T04:01:21;29.70;;;24.10;;
8837;SDS011;4455;50.880;4.698;2022-08-19T04:03:49;32.33;;;24.80;;
8837;SDS011;4455;50.880;4.698;2022-08-19T04:08:41;28.63;;;23.43;;
8837;SDS011;4455;50.880;4.698;2022-08-19T04:11:09;31.63;;;24.30;;
8837;SDS011;4455;50.880;4.698;2022-08-19T04:13:37;28.63;;;22.47;;
8837;SDS011;4455;50.880;4.698;2022-08-19T04:16:04;28.67;;;24.13;;
8837;SDS011;4455;50.880;4.698;2022-08-19T04:18:31;29.43;;;23.77;;
8837;SDS011;4455;50.880;4.698;2022-08-19T04:20:58;28.37;;;22.87;;
8837;SDS011;4455;50.880;4.698;2022-08-19T04:23:25;29.43;;;23.33;;
8837;SDS011;4455;50.880;4.698;2022-08-19T04:25:53;26.77;;;22.20;;
8837;SDS011;4455;50.880;4.698;2022-08-19T04:28:20;30.63;;;23.63;;
8837;SDS011;4455;50.880;4.698;2022-08-19T04:30:48;30.03;;;23.13;;
8837;SDS011;4455;50.880;4.698;2022-08-19T04:33:17;32.27;;;23.33;;
8837;SDS011;4455;50.880;4.698;2022-08-19T04:35:45;30.73;;;22.03;;
8837;SDS011;4455;50.880;4.698;2022-08-19T04:38:13;30.20;;;22.67;;
8837;SDS011;4455;50.880;4.698;2022-08-19T04:40:44;26.07;;;20.97;;
8837;SDS011;4455;50.880;4.698;2022-08-19T04:43:30;29.37;;;21.57;;
8837;SDS011;4455;50.880;4.698;2022-08-19T04:45:57;29.97;;;21.83;;
8837;SDS011;4455;50.880;4.698;2022-08-19T04:48:23;27.03;;;20.93;;
8837;SDS011;4455;50.880;4.698;2022-08-19T04:50:53;26.63;;;21.00;;
8837;SDS011;4455;50.880;4.698;2022-08-19T04:53:28;27.33;;;19.87;;
8837;SDS011;4455;50.880;4.698;2022-08-19T04:55:55;27.93;;;20.30;;
8837;SDS011;4455;50.880;4.698;2022-08-19T04:58:23;24.57;;;20.77;;
8837;SDS011;4455;50.880;4.698;2022-08-19T05:00:50;28.63;;;20.47;;
8837;SDS011;4455;50.880;4.698;2022-08-19T05:03:16;28.73;;;20.50;;
8837;SDS011;4455;50.880;4.698;2022-08-19T05:05:42;27.80;;;21.73;;
8837;SDS011;4455;50.880;4.698;2022-08-19T05:08:10;30.20;;;20.77;;
8837;SDS011;4455;50.880;4.698;2022-08-19T05:10:37;31.60;;;21.87;;
8837;SDS011;4455;50.880;4.698;2022-08-19T05:13:04;26.67;;;20.70;;
8837;SDS011;4455;50.880;4.698;2022-08-19T05:15:30;29.50;;;21.90;;
8837;SDS011;4455;50.880;4.698;2022-08-19T05:17:56;32.23;;;21.70;;
8837;SDS011;4455;50.880;4.698;2022-08-19T05:20:41;46.30;;;23.67;;
8837;SDS011;4455;50.880;4.698;2022-08-19T05:23:25;28.60;;;20.03;;
8837;SDS011;4455;50.880;4.698;2022-08-19T05:25:51;35.10;;;20.43;;
8837;SDS011;4455;50.880;4.698;2022-08-19T05:28:18;32.77;;;20.97;;
8837;SDS011;4455;50.880;4.698;2022-08-19T05:30:45;29.57;;;19.23;;
8837;SDS011;4455;50.880;4.698;2022-08-19T05:33:11;29.53;;;20.47;;
8837;SDS011;4455;50.880;4.698;2022-08-19T05:35:38;25.83;;;18.43;;
8837;SDS011;4455;50.880;4.698;2022-08-19T05:38:05;24.13;;;18.73;;
8837;SDS011;4455;50.880;4.698;2022-08-19T05:40:34;27.97;;;19.33;;
8837;SDS011;4455;50.880;4.698;2022-08-19T05:43:04;28.77;;;19.40;;
8837;SDS011;4455;50.880;4.698;2022-08-19T05:45:31;29.90;;;19.47;;
8837;SDS011;4455;50.880;4.698;2022-08-19T05:47:57;29.47;;;19.40;;
8837;SDS011;4455;50.880;4.698;2022-08-19T05:50:24;24.83;;;18.60;;
8837;SDS011;4455;50.880;4.698;2022-08-19T05:52:51;25.60;;;20.10;;
8837;SDS011;4455;50.880;4.698;2022-08-19T05:55:17;28.63;;;20.00;;
8837;SDS011;4455;50.880;4.698;2022-08-19T05:57:46;29.30;;;19.90;;
8837;SDS011;4455;50.880;4.698;2022-08-19T06:00:12;32.47;;;20.57;;
8837;SDS011;4455;50.880;4.698;2022-08-19T06:02:39;30.07;;;20.57;;
8837;SDS011;4455;50.880;4.698;2022-08-19T06:05:06;27.40;;;19.03;;
8837;SDS011;4455;50.880;4.698;2022-08-19T06:07:35;27.60;;;18.90;;
8837;SDS011;4455;50.880;4.698;2022-08-19T06:10:03;26.07;;;19.00;;
8837;SDS011;4455;50.880;4.698;2022-08-19T06:12:31;25.70;;;19.37;;
8837;SDS011;4455;50.880;4.698;2022-08-19T06:15:01;29.30;;;20.87;;
8837;SDS011;4455;50.880;4.698;2022-08-19T06:17:29;26.37;;;19.57;;
8837;SDS011;4455;50.880;4.698;2022-08-19T06:19:55;25.63;;;18.40;;
8837;SDS011;4455;50.880;4.698;2022-08-19T06:22:21;25.17;;;18.50;;
8837;SDS011;4455;50.880;4.698;2022-08-19T06:24:47;26.53;;;19.90;;
8837;SDS011;4455;50.880;4.698;2022-08-19T06:27:13;24.37;;;18.53;;
8837;SDS011;4455;50.880;4.698;2022-08-19T06:29:38;22.13;;;18.10;;
8837;SDS011;4455;50.880;4.698;2022-08-19T06:32:04;26.70;;;18.90;;
8837;SDS011;4455;50.880;4.698;2022-08-19T06:34:31;24.57;;;19.17;;
8837;SDS011;4455;50.880;4.698;2022-08-19T06:36:59;25.47;;;18.20;;
8837;SDS011;4455;50.880;4.698;2022-08-19T06:39:28;22.37;;;16.67;;
8837;SDS011;4455;50.880;4.698;2022-08-19T06:41:56;23.50;;;17.30;;
8837;SDS011;4455;50.880;4.698;2022-08-19T06:44:26;24.20;;;17.50;;
8837;SDS011;4455;50.880;4.698;2022-08-19T06:46:53;24.70;;;18.37;;
8837;SDS011;4455;50.880;4.698;2022-08-19T06:49:20;20.53;;;16.30;;
8837;SDS011;4455;50.880;4.698;2022-08-19T06:51:47;20.83;;;16.37;;
8837;SDS011;4455;50.880;4.698;2022-08-19T06:54:15;24.20;;;16.50;;
8837;SDS011;4455;50.880;4.698;2022-08-19T06:56:44;22.30;;;16.50;;
8837;SDS011;4455;50.880;4.698;2022-08-19T06:59:12;23.23;;;16.67;;
8837;SDS011;4455;50.880;4.698;2022-08-19T07:01:41;22.77;;;16.03;;
8837;SDS011;4455;50.880;4.698;2022-08-19T07:04:10;18.43;;;14.90;;
8837;SDS011;4455;50.880;4.698;2022-08-19T07:06:36;19.80;;;14.00;;
8837;SDS011;4455;50.880;4.698;2022-08-19T07:09:03;18.90;;;14.50;;
8837;SDS011;4455;50.880;4.698;2022-08-19T07:11:31;18.37;;;14.37;;
8837;SDS011;4455;50.880;4.698;2022-08-19T07:13:57;21.33;;;14.43;;
8837;SDS011;4455;50.880;4.698;2022-08-19T07:16:24;17.27;;;13.47;;
8837;SDS011;4455;50.880;4.698;2022-08-19T07:18:52;16.67;;;12.83;;
8837;SDS011;4455;50.880;4.698;2022-08-19T07:21:22;15.70;;;12.80;;
8837;SDS011;4455;50.880;4.698;2022-08-19T07:23:52;17.40;;;11.70;;
8837;SDS011;4455;50.880;4.698;2022-08-19T07:26:20;14.27;;;10.80;;
8837;SDS011;4455;50.880;4.698;2022-08-19T07:28:48;14.47;;;10.27;;
8837;SDS011;4455;50.880;4.698;2022-08-19T07:31:15;12.10;;;9.20;;
8837;SDS011;4455;50.880;4.698;2022-08-19T07:33:43;12.57;;;9.37;;
8837;SDS011;4455;50.880;4.698;2022-08-19T07:36:11;11.67;;;8.67;;
8837;SDS011;4455;50.880;4.698;2022-08-19T07:38:43;11.67;;;9.67;;
8837;SDS011;4455;50.880;4.698;2022-08-19T07:41:13;10.53;;;7.30;;
8837;SDS011;4455;50.880;4.698;2022-08-19T07:43:41;11.77;;;6.33;;
8837;SDS011;4455;50.880;4.698;2022-08-19T07:46:08;10.63;;;6.90;;
8837;SDS011;4455;50.880;4.698;2022-08-19T07:48:36;10.60;;;6.37;;
8837;SDS011;4455;50.880;4.698;2022-08-19T07:51:03;9.37;;;6.40;;
8837;SDS011;4455;50.880;4.698;2022-08-19T07:53:30;9.87;;;5.70;;
8837;SDS011;4455;50.880;4.698;2022-08-19T07:55:58;6.33;;;5.20;;
8837;SDS011;4455;50.880;4.698;2022-08-19T07:58:29;7.33;;;4.60;;
8837;SDS011;4455;50.880;4.698;2022-08-19T08:00:57;10.57;;;5.17;;
8837;SDS011;4455;50.880;4.698;2022-08-19T08:03:23;9.87;;;5.33;;
8837;SDS011;4455;50.880;4.698;2022-08-19T08:06:11;10.67;;;4.97;;
8837;SDS011;4455;50.880;4.698;2022-08-19T08:08:56;7.77;;;4.37;;
8837;SDS011;4455;50.880;4.698;2022-08-19T08:11:50;7.10;;;5.10;;
8837;SDS011;4455;50.880;4.698;2022-08-19T08:14:30;9.70;;;4.43;;
8837;SDS011;4455;50.880;4.698;2022-08-19T08:17:02;8.87;;;4.60;;
8837;SDS011;4455;50.880;4.698;2022-08-19T08:19:29;7.23;;;4.63;;
8837;SDS011;4455;50.880;4.698;2022-08-19T08:21:58;8.00;;;5.00;;
8837;SDS011;4455;50.880;4.698;2022-08-19T08:26:59;10.17;;;5.73;;
8837;SDS011;4455;50.880;4.698;2022-08-19T08:29:26;8.50;;;4.90;;
8837;SDS011;4455;50.880;4.698;2022-08-19T08:31:54;7.00;;;4.80;;
8837;SDS011;4455;50.880;4.698;2022-08-19T08:34:21;11.47;;;5.07;;
8837;SDS011;4455;50.880;4.698;2022-08-19T08:36:47;7.43;;;5.07;;
8837;SDS011;4455;50.880;4.698;2022-08-19T08:39:15;9.47;;;4.70;;
8837;SDS011;4455;50.880;4.698;2022-08-19T08:47:04;8.90;;;5.60;;
8837;SDS011;4455;50.880;4.698;2022-08-19T08:52:07;6.40;;;4.80;;
8837;SDS011;4455;50.880;4.698;2022-08-19T08:54:41;7.40;;;4.67;;
8837;SDS011;4455;50.880;4.698;2022-08-19T08:57:15;6.90;;;5.00;;
8837;SDS011;4455;50.880;4.698;2022-08-19T08:59:48;6.73;;;4.77;;
8837;SDS011;4455;50.880;4.698;2022-08-19T09:02:18;10.73;;;4.93;;
8837;SDS011;4455;50.880;4.698;2022-08-19T09:04:44;8.90;;;5.43;;
8837;SDS011;4455;50.880;4.698;2022-08-19T09:09:48;7.70;;;4.87;;
8837;SDS011;4455;50.880;4.698;2022-08-19T09:12:23;8.93;;;4.93;;
8837;SDS011;4455;50.880;4.698;2022-08-19T09:15:17;7.40;;;4.30;;
8837;SDS011;4455;50.880;4.698;2022-08-19T09:17:43;7.17;;;4.40;;
8837;SDS011;4455;50.880;4.698;2022-08-19T09:22:37;9.27;;;3.93;;
8837;SDS011;4455;50.880;4.698;2022-08-19T09:25:06;6.10;;;4.07;;
8837;SDS011;4455;50.880;4.698;2022-08-19T09:27:33;6.37;;;3.60;;
8837;SDS011;4455;50.880;4.698;2022-08-19T09:30:03;4.67;;;4.07;;
8837;SDS011;4455;50.880;4.698;2022-08-19T09:32:29;5.47;;;3.80;;
8837;SDS011;4455;50.880;4.698;2022-08-19T09:34:55;6.97;;;3.80;;
8837;SDS011;4455;50.880;4.698;2022-08-19T09:37:23;5.03;;;3.37;;
8837;SDS011;4455;50.880;4.698;2022-08-19T09:39:50;9.83;;;3.93;;
8837;SDS011;4455;50.880;4.698;2022-08-19T09:42:17;8.80;;;3.70;;
8837;SDS011;4455;50.880;4.698;2022-08-19T09:44:44;9.63;;;4.00;;
8837;SDS011;4455;50.880;4.698;2022-08-19T09:47:11;5.93;;;4.23;;
8837;SDS011;4455;50.880;4.698;2022-08-19T09:49:38;7.93;;;3.83;;
8837;SDS011;4455;50.880;4.698;2022-08-19T09:52:05;6.00;;;3.43;;
8837;SDS011;4455;50.880;4.698;2022-08-19T09:54:33;8.80;;;4.07;;
8837;SDS011;4455;50.880;4.698;2022-08-19T09:57:00;6.53;;;4.13;;
8837;SDS011;4455;50.880;4.698;2022-08-19T09:59:27;6.90;;;4.10;;
8837;SDS011;4455;50.880;4.698;2022-08-19T10:01:54;4.10;;;3.60;;
8837;SDS011;4455;50.880;4.698;2022-08-19T10:04:20;6.90;;;4.13;;
8837;SDS011;4455;50.880;4.698;2022-08-19T10:06:46;6.07;;;4.07;;
8837;SDS011;4455;50.880;4.698;2022-08-19T10:09:14;4.87;;;3.93;;
8837;SDS011;4455;50.880;4.698;2022-08-19T10:11:43;6.53;;;4.00;;
8837;SDS011;4455;50.880;4.698;2022-08-19T10:14:15;8.30;;;5.07;;
8837;SDS011;4455;50.880;4.698;2022-08-19T10:16:41;6.73;;;4.37;;
8837;SDS011;4455;50.880;4.698;2022-08-19T10:19:09;5.90;;;4.10;;
8837;SDS011;4455;50.880;4.698;2022-08-19T10:21:37;9.67;;;4.03;;
8837;SDS011;4455;50.880;4.698;2022-08-19T10:24:04;5.57;;;4.00;;
8837;SDS011;4455;50.880;4.698;2022-08-19T10:26:33;4.90;;;4.33;;
8837;SDS011;4455;50.880;4.698;2022-08-19T10:29:02;6.40;;;4.73;;
8837;SDS011;4455;50.880;4.698;2022-08-19T10:31:30;7.37;;;4.17;;
8837;SDS011;4455;50.880;4.698;2022-08-19T10:33:58;6.07;;;4.27;;
8837;SDS011;4455;50.880;4.698;2022-08-19T10:36:26;5.30;;;4.07;;
8837;SDS011;4455;50.880;4.698;2022-08-19T10:38:54;6.40;;;4.20;;
8837;SDS011;4455;50.880;4.698;2022-08-19T10:41:25;6.00;;;4.23;;
8837;SDS011;4455;50.880;4.698;2022-08-19T10:43:54;5.60;;;3.77;;
8837;SDS011;4455;50.880;4.698;2022-08-19T10:46:23;5.70;;;4.10;;
8837;SDS011;4455;50.880;4.698;2022-08-19T10:48:51;5.20;;;3.87;;
8837;SDS011;4455;50.880;4.698;2022-08-19T10:51:18;4.43;;;3.90;;
8837;SDS011;4455;50.880;4.698;2022-08-19T10:54:03;5.70;;;4.00;;
8837;SDS011;4455;50.880;4.698;2022-08-19T10:56:29;7.07;;;3.77;;
8837;SDS011;4455;50.880;4.698;2022-08-19T10:59:15;4.10;;;3.77;;
8837;SDS011;4455;50.880;4.698;2022-08-19T11:01:42;5.37;;;4.10;;
8837;SDS011;4455;50.880;4.698;2022-08-19T11:04:10;4.70;;;3.70;;
8837;SDS011;4455;50.880;4.698;2022-08-19T11:06:41;6.47;;;3.30;;
8837;SDS011;4455;50.880;4.698;2022-08-19T11:09:08;4.30;;;3.30;;
8837;SDS011;4455;50.880;4.698;2022-08-19T11:11:36;4.97;;;3.73;;
8837;SDS011;4455;50.880;4.698;2022-08-19T11:14:06;6.13;;;3.63;;
8837;SDS011;4455;50.880;4.698;2022-08-19T11:16:37;5.07;;;3.70;;
8837;SDS011;4455;50.880;4.698;2022-08-19T11:19:06;6.17;;;3.87;;
8837;SDS011;4455;50.880;4.698;2022-08-19T11:21:34;8.70;;;3.93;;
8837;SDS011;4455;50.880;4.698;2022-08-19T11:24:04;4.13;;;3.73;;
8837;SDS011;4455;50.880;4.698;2022-08-19T11:26:33;5.53;;;3.67;;
8837;SDS011;4455;50.880;4.698;2022-08-19T11:29:00;5.23;;;3.63;;
8837;SDS011;4455;50.880;4.698;2022-08-19T11:31:28;4.27;;;3.13;;
8837;SDS011;4455;50.880;4.698;2022-08-19T11:33:59;5.37;;;3.20;;
8837;SDS011;4455;50.880;4.698;2022-08-19T11:36:27;5.07;;;2.97;;
8837;SDS011;4455;50.880;4.698;2022-08-19T11:38:53;5.20;;;2.87;;
8837;SDS011;4455;50.880;4.698;2022-08-19T11:41:20;7.93;;;3.50;;
8837;SDS011;4455;50.880;4.698;2022-08-19T11:43:48;7.03;;;3.53;;
8837;SDS011;4455;50.880;4.698;2022-08-19T11:46:16;5.10;;;3.47;;
8837;SDS011;4455;50.880;4.698;2022-08-19T11:48:42;5.70;;;3.60;;
8837;SDS011;4455;50.880;4.698;2022-08-19T11:51:14;10.23;;;4.50;;
8837;SDS011;4455;50.880;4.698;2022-08-19T11:53:44;6.23;;;4.33;;
8837;SDS011;4455;50.880;4.698;2022-08-19T11:56:10;6.10;;;3.70;;
8837;SDS011;4455;50.880;4.698;2022-08-19T11:58:37;5.10;;;4.20;;
8837;SDS011;4455;50.880;4.698;2022-08-19T12:01:22;6.57;;;5.00;;
8837;SDS011;4455;50.880;4.698;2022-08-19T12:03:50;7.27;;;4.90;;
8837;SDS011;4455;50.880;4.698;2022-08-19T12:06:19;8.40;;;4.60;;
8837;SDS011;4455;50.880;4.698;2022-08-19T12:08:57;6.83;;;4.50;;
8837;SDS011;4455;50.880;4.698;2022-08-19T12:11:24;6.50;;;5.53;;
8837;SDS011;4455;50.880;4.698;2022-08-19T12:13:51;6.13;;;5.30;;
8837;SDS011;4455;50.880;4.698;2022-08-19T12:16:18;12.20;;;5.17;;
8837;SDS011;4455;50.880;4.698;2022-08-19T12:18:49;10.03;;;5.03;;
8837;SDS011;4455;50.880;4.698;2022-08-19T12:21:17;5.97;;;5.30;;
8837;SDS011;4455;50.880;4.698;2022-08-19T12:23:47;12.20;;;6.00;;
8837;SDS011;4455;50.880;4.698;2022-08-19T12:26:14;10.63;;;6.97;;
8837;SDS011;4455;50.880;4.698;2022-08-19T12:28:40;8.77;;;6.20;;
8837;SDS011;4455;50.880;4.698;2022-08-19T12:31:07;9.10;;;6.43;;
8837;SDS011;4455;50.880;4.698;2022-08-19T12:33:33;7.03;;;5.87;;
8837;SDS011;4455;50.880;4.698;2022-08-19T12:36:00;6.90;;;5.80;;
8837;SDS011;4455;50.880;4.698;2022-08-19T12:38:28;10.07;;;6.63;;
8837;SDS011;4455;50.880;4.698;2022-08-19T12:40:54;7.30;;;5.77;;
8837;SDS011;4455;50.880;4.698;2022-08-19T12:43:21;7.77;;;6.00;;
8837;SDS011;4455;50.880;4.698;2022-08-19T12:45:46;6.43;;;5.83;;
8837;SDS011;4455;50.880;4.698;2022-08-19T12:48:13;8.43;;;6.50;;
8837;SDS011;4455;50.880;4.698;2022-08-19T12:50:40;7.13;;;6.37;;
8837;SDS011;4455;50.880;4.698;2022-08-19T12:53:12;9.43;;;5.83;;
8837;SDS011;4455;50.880;4.698;2022-08-19T12:55:39;6.60;;;5.53;;
8837;SDS011;4455;50.880;4.698;2022-08-19T12:58:06;6.53;;;5.13;;
8837;SDS011;4455;50.880;4.698;2022-08-19T13:00:32;13.10;;;5.80;;
8837;SDS011;4455;50.880;4.698;2022-08-19T13:02:58;5.77;;;5.17;;
8837;SDS011;4455;50.880;4.698;2022-08-19T13:05:25;5.33;;;4.53;;
8837;SDS011;4455;50.880;4.698;2022-08-19T13:07:54;7.83;;;4.63;;
8837;SDS011;4455;50.880;4.698;2022-08-19T13:10:22;5.27;;;4.73;;
8837;SDS011;4455;50.880;4.698;2022-08-19T13:12:50;5.20;;;3.87;;
8837;SDS011;4455;50.880;4.698;2022-08-19T13:15:17;13.87;;;4.97;;
8837;SDS011;4455;50.880;4.698;2022-08-19T13:17:47;14.37;;;5.50;;
8837;SDS011;4455;50.880;4.698;2022-08-19T13:20:16;7.50;;;4.80;;
8837;SDS011;4455;50.880;4.698;2022-08-19T13:22:44;8.23;;;5.00;;
8837;SDS011;4455;50.880;4.698;2022-08-19T13:25:10;8.20;;;4.30;;
8837;SDS011;4455;50.880;4.698;2022-08-19T13:27:38;13.03;;;11.23;;
8837;SDS011;4455;50.880;4.698;2022-08-19T13:30:05;5.67;;;4.30;;
8837;SDS011;4455;50.880;4.698;2022-08-19T13:32:52;5.60;;;4.23;;
8837;SDS011;4455;50.880;4.698;2022-08-19T13:35:39;4.30;;;3.90;;
8837;SDS011;4455;50.880;4.698;2022-08-19T13:38:16;5.47;;;3.20;;
8837;SDS011;4455;50.880;4.698;2022-08-19T13:40:45;3.60;;;2.90;;
8837;SDS011;4455;50.880;4.698;2022-08-19T13:43:12;7.57;;;3.23;;
8837;SDS011;4455;50.880;4.698;2022-08-19T13:45:39;5.30;;;2.87;;
8837;SDS011;4455;50.880;4.698;2022-08-19T13:48:05;3.27;;;2.97;;
8837;SDS011;4455;50.880;4.698;2022-08-19T13:50:34;4.23;;;2.73;;
8837;SDS011;4455;50.880;4.698;2022-08-19T13:53:06;5.23;;;2.80;;
8837;SDS011;4455;50.880;4.698;2022-08-19T13:55:33;3.90;;;2.47;;
8837;SDS011;4455;50.880;4.698;2022-08-19T13:58:00;3.80;;;2.27;;
8837;SDS011;4455;50.880;4.698;2022-08-19T14:00:28;2.33;;;2.13;;
8837;SDS011;4455;50.880;4.698;2022-08-19T14:02:57;2.77;;;2.40;;
8837;SDS011;4455;50.880;4.698;2022-08-19T14:05:25;3.13;;;2.33;;
8837;SDS011;4455;50.880;4.698;2022-08-19T14:07:52;4.00;;;2.10;;
8837;SDS011;4455;50.880;4.698;2022-08-19T14:10:18;3.37;;;2.30;;
8837;SDS011;4455;50.880;4.698;2022-08-19T14:12:45;3.53;;;1.80;;
8837;SDS011;4455;50.880;4.698;2022-08-19T14:15:13;1.87;;;1.70;;
8837;SDS011;4455;50.880;4.698;2022-08-19T14:17:40;5.10;;;2.33;;
8837;SDS011;4455;50.880;4.698;2022-08-19T14:20:07;6.03;;;2.20;;
8837;SDS011;4455;50.880;4.698;2022-08-19T14:22:39;3.23;;;1.90;;
8837;SDS011;4455;50.880;4.698;2022-08-19T14:25:07;2.53;;;2.10;;
8837;SDS011;4455;50.880;4.698;2022-08-19T14:27:35;4.50;;;1.90;;
8837;SDS011;4455;50.880;4.698;2022-08-19T14:30:03;4.00;;;2.10;;
8837;SDS011;4455;50.880;4.698;2022-08-19T14:32:32;4.43;;;2.00;;
8837;SDS011;4455;50.880;4.698;2022-08-19T14:34:59;3.73;;;2.17;;
8837;SDS011;4455;50.880;4.698;2022-08-19T14:37:25;3.23;;;1.87;;
8837;SDS011;4455;50.880;4.698;2022-08-19T14:39:51;5.30;;;2.00;;
8837;SDS011;4455;50.880;4.698;2022-08-19T14:42:16;2.27;;;1.60;;
8837;SDS011;4455;50.880;4.698;2022-08-19T14:44:43;2.83;;;1.60;;
8837;SDS011;4455;50.880;4.698;2022-08-19T14:47:09;3.67;;;1.70;;
8837;SDS011;4455;50.880;4.698;2022-08-19T14:49:35;3.07;;;2.10;;
8837;SDS011;4455;50.880;4.698;2022-08-19T14:52:01;3.43;;;1.70;;
8837;SDS011;4455;50.880;4.698;2022-08-19T14:54:28;4.10;;;1.90;;
8837;SDS011;4455;50.880;4.698;2022-08-19T14:56:54;4.50;;;1.77;;
8837;SDS011;4455;50.880;4.698;2022-08-19T14:59:20;3.30;;;1.80;;
8837;SDS011;4455;50.880;4.698;2022-08-19T15:01:46;2.40;;;1.40;;
8837;SDS011;4455;50.880;4.698;2022-08-19T15:04:12;2.70;;;1.60;;
8837;SDS011;4455;50.880;4.698;2022-08-19T15:06:38;3.30;;;2.10;;
8837;SDS011;4455;50.880;4.698;2022-08-19T15:09:04;2.53;;;1.97;;
8837;SDS011;4455;50.880;4.698;2022-08-19T15:11:31;1.77;;;1.40;;
8837;SDS011;4455;50.880;4.698;2022-08-19T15:13:58;3.50;;;2.30;;
8837;SDS011;4455;50.880;4.698;2022-08-19T15:16:25;3.53;;;2.03;;
8837;SDS011;4455;50.880;4.698;2022-08-19T15:18:52;2.20;;;2.00;;
8837;SDS011;4455;50.880;4.698;2022-08-19T15:21:20;3.17;;;2.67;;
8837;SDS011;4455;50.880;4.698;2022-08-19T15:23:48;3.87;;;2.70;;
8837;SDS011;4455;50.880;4.698;2022-08-19T15:26:16;2.73;;;1.90;;